createdAt,value
2019-04-28T00:00:15.865Z,0.00
2019-04-28T00:01:14.829Z,0.00
2019-04-28T00:02:15.913Z,0.00
2019-04-28T00:03:14.820Z,0.00
2019-04-28T00:04:14.983Z,0.00
2019-04-28T00:05:14.798Z,0.00
2019-04-28T00:06:14.901Z,0.00
2019-04-28T00:07:14.785Z,0.00
2019-04-28T00:08:14.915Z,0.00
2019-04-28T00:09:14.797Z,0.00
2019-04-28T00:10:14.797Z,0.00
2019-04-28T00:11:14.723Z,0.00
2019-04-28T00:12:14.847Z,0.00
2019-04-28T00:13:14.760Z,0.00
2019-04-28T00:14:14.967Z,0.00
2019-04-28T00:15:14.692Z,0.00
2019-04-28T00:16:15.826Z,0.00
2019-04-28T00:17:14.675Z,0.00
2019-04-28T00:18:14.802Z,0.00
2019-04-28T00:19:14.687Z,0.00
2019-04-28T00:20:14.756Z,0.00
2019-04-28T00:21:14.612Z,0.00
2019-04-28T00:22:15.795Z,0.00
2019-04-28T00:23:14.625Z,0.00
2019-04-28T00:24:14.774Z,0.00
2019-04-28T00:25:14.571Z,0.00
2019-04-28T00:26:14.737Z,0.00
2019-04-28T00:27:14.556Z,0.00
2019-04-28T00:28:14.641Z,0.00
2019-04-28T00:29:14.615Z,0.00
2019-04-28T00:30:14.657Z,0.00
2019-04-28T00:31:14.517Z,0.00
2019-04-28T00:32:14.671Z,0.00
2019-04-28T00:33:14.527Z,0.00
2019-04-28T00:34:14.593Z,0.00
2019-04-28T00:35:14.483Z,0.00
2019-04-28T00:36:14.558Z,0.00
2019-04-28T00:37:14.472Z,0.00
2019-04-28T00:38:14.456Z,0.00
2019-04-28T00:39:14.554Z,0.00
2019-04-28T00:40:16.595Z,0.00
2019-04-28T00:41:14.460Z,0.00
2019-04-28T00:42:14.550Z,0.00
2019-04-28T00:43:14.413Z,0.00
2019-04-28T00:44:14.459Z,0.00
2019-04-28T00:45:14.402Z,0.00
2019-04-28T00:46:14.466Z,0.00
2019-04-28T00:47:14.376Z,0.00
2019-04-28T00:48:16.276Z,0.00
2019-04-28T00:49:14.375Z,0.00
2019-04-28T00:50:14.384Z,0.00
2019-04-28T00:51:14.318Z,0.00
2019-04-28T00:52:14.393Z,0.00
2019-04-28T00:53:14.303Z,0.00
2019-04-28T00:54:14.346Z,0.00
2019-04-28T00:55:15.345Z,0.00
2019-04-28T00:56:15.263Z,0.00
2019-04-28T00:57:15.330Z,0.00
2019-04-28T00:58:14.233Z,0.00
2019-04-28T00:59:14.374Z,0.00
2019-04-28T01:00:14.213Z,0.00
2019-04-28T01:01:14.230Z,0.00
2019-04-28T01:02:14.200Z,0.00
2019-04-28T01:03:14.242Z,0.00
2019-04-28T01:04:14.210Z,0.00
2019-04-28T01:05:14.262Z,0.00
2019-04-28T01:06:14.198Z,0.00
2019-04-28T01:07:14.148Z,0.00
2019-04-28T01:08:14.143Z,0.00
2019-04-28T01:09:15.253Z,0.00
2019-04-28T01:10:14.103Z,0.00
2019-04-28T01:11:15.222Z,0.00
2019-04-28T01:12:14.076Z,0.00
2019-04-28T01:13:14.078Z,0.00
2019-04-28T01:14:14.111Z,0.00
2019-04-28T01:15:14.097Z,0.00
2019-04-28T01:16:14.044Z,0.00
2019-04-28T01:17:14.166Z,0.00
2019-04-28T01:18:14.026Z,0.00
2019-04-28T01:19:14.035Z,0.00
2019-04-28T01:20:14.021Z,0.00
2019-04-28T01:21:15.092Z,0.00
2019-04-28T01:22:14.018Z,0.00
2019-04-28T01:23:14.067Z,0.00
2019-04-28T01:24:13.995Z,0.00
2019-04-28T01:25:13.957Z,0.00
2019-04-28T01:26:13.939Z,0.00
2019-04-28T01:27:15.027Z,0.00
2019-04-28T01:28:13.936Z,0.00
2019-04-28T01:29:13.962Z,0.00
2019-04-28T01:30:13.935Z,0.00
2019-04-28T01:31:13.901Z,0.00
2019-04-28T01:32:13.875Z,0.00
2019-04-28T01:33:21.825Z,0.00
2019-04-28T01:34:13.879Z,0.00
2019-04-28T01:35:13.964Z,0.00
2019-04-28T01:36:13.838Z,0.00
2019-04-28T01:37:13.830Z,0.00
2019-04-28T01:38:13.842Z,0.00
2019-04-28T01:39:13.919Z,0.00
2019-04-28T01:40:13.788Z,0.00
2019-04-28T01:41:13.903Z,0.00
2019-04-28T01:42:13.776Z,0.00
2019-04-28T01:43:13.777Z,0.00
2019-04-28T01:44:13.795Z,0.00
2019-04-28T01:45:13.829Z,0.00
2019-04-28T01:46:13.722Z,0.00
2019-04-28T01:47:14.752Z,0.00
2019-04-28T01:48:13.762Z,0.00
2019-04-28T01:49:14.842Z,0.00
2019-04-28T01:50:13.683Z,0.00
2019-04-28T01:51:13.756Z,0.00
2019-04-28T01:52:13.684Z,0.00
2019-04-28T01:53:13.772Z,0.00
2019-04-28T01:54:13.694Z,0.00
2019-04-28T01:55:13.680Z,0.00
2019-04-28T01:56:13.652Z,0.00
2019-04-28T01:57:13.703Z,0.00
2019-04-28T01:58:13.629Z,0.00
2019-04-28T01:59:13.660Z,0.00
2019-04-28T02:00:23.115Z,0.00
2019-04-28T02:01:14.594Z,0.00
2019-04-28T02:02:13.579Z,0.00
2019-04-28T02:03:13.641Z,0.00
2019-04-28T02:04:13.584Z,0.00
2019-04-28T02:05:14.582Z,0.00
2019-04-28T02:06:13.521Z,0.00
2019-04-28T02:07:14.378Z,0.00
2019-04-28T02:08:13.514Z,0.00
2019-04-28T02:09:14.705Z,0.00
2019-04-28T02:10:13.487Z,0.00
2019-04-28T02:11:13.649Z,0.00
2019-04-28T02:12:13.451Z,0.00
2019-04-28T02:13:14.592Z,0.00
2019-04-28T02:14:13.476Z,0.00
2019-04-28T02:15:13.542Z,0.00
2019-04-28T02:16:13.463Z,0.00
2019-04-28T02:17:13.493Z,0.00
2019-04-28T02:18:13.416Z,0.00
2019-04-28T02:19:13.565Z,0.00
2019-04-28T02:20:13.524Z,0.00
2019-04-28T02:21:13.355Z,0.00
2019-04-28T02:22:13.465Z,0.00
2019-04-28T02:23:13.348Z,0.00
2019-04-28T02:24:13.580Z,0.00
2019-04-28T02:25:13.311Z,0.00
2019-04-28T02:26:13.325Z,0.00
2019-04-28T02:27:13.290Z,0.00
2019-04-28T02:28:13.455Z,0.00
2019-04-28T02:29:13.296Z,0.00
2019-04-28T02:30:13.365Z,0.00
2019-04-28T02:31:13.264Z,0.00
2019-04-28T02:32:13.256Z,0.00
2019-04-28T02:33:13.236Z,0.00
2019-04-28T02:34:13.318Z,0.00
2019-04-28T02:35:13.213Z,0.00
2019-04-28T02:36:13.243Z,0.00
2019-04-28T02:37:13.196Z,0.00
2019-04-28T02:38:13.180Z,0.00
2019-04-28T02:39:13.219Z,0.00
2019-04-28T02:40:13.260Z,0.00
2019-04-28T02:41:13.143Z,0.00
2019-04-28T02:42:13.174Z,0.00
2019-04-28T02:43:13.148Z,0.00
2019-04-28T02:44:13.268Z,0.00
2019-04-28T02:45:13.102Z,0.00
2019-04-28T02:46:13.198Z,0.00
2019-04-28T02:47:13.088Z,0.00
2019-04-28T02:48:13.117Z,0.00
2019-04-28T02:49:13.121Z,0.00
2019-04-28T02:50:13.128Z,0.00
2019-04-28T02:51:13.137Z,0.00
2019-04-28T02:52:13.032Z,0.00
2019-04-28T02:53:13.045Z,0.00
2019-04-28T02:54:13.054Z,0.00
2019-04-28T02:55:13.076Z,0.00
2019-04-28T02:56:13.000Z,0.00
2019-04-28T02:57:13.012Z,0.00
2019-04-28T02:58:13.427Z,0.00
2019-04-28T02:59:13.006Z,0.00
2019-04-28T03:00:13.084Z,0.00
2019-04-28T03:01:22.872Z,0.00
2019-04-28T03:02:13.953Z,0.00
2019-04-28T03:03:12.923Z,0.00
2019-04-28T03:04:12.934Z,0.00
2019-04-28T03:05:12.942Z,0.00
2019-04-28T03:06:12.902Z,0.00
2019-04-28T03:07:14.621Z,0.00
2019-04-28T03:08:12.909Z,0.00
2019-04-28T03:09:12.897Z,0.00
2019-04-28T03:10:12.854Z,0.00
2019-04-28T03:11:12.869Z,0.00
2019-04-28T03:12:12.839Z,0.00
2019-04-28T03:13:13.498Z,0.00
2019-04-28T03:14:12.850Z,0.00
2019-04-28T03:15:12.915Z,0.00
2019-04-28T03:16:12.783Z,0.00
2019-04-28T03:17:12.829Z,0.00
2019-04-28T03:18:12.761Z,0.00
2019-04-28T03:19:12.880Z,0.00
2019-04-28T03:20:12.773Z,0.00
2019-04-28T03:21:12.841Z,0.00
2019-04-28T03:22:12.733Z,0.00
2019-04-28T03:23:14.817Z,0.00
2019-04-28T03:24:13.326Z,0.00
2019-04-28T03:25:13.789Z,0.00
2019-04-28T03:26:12.691Z,0.00
2019-04-28T03:27:14.714Z,0.00
2019-04-28T03:28:12.652Z,0.00
2019-04-28T03:29:13.767Z,0.00
2019-04-28T03:30:13.475Z,0.00
2019-04-28T03:31:36.738Z,0.00
2019-04-28T03:32:30.588Z,0.00
2019-04-28T03:33:18.768Z,0.00
2019-04-28T03:34:13.693Z,0.00
2019-04-28T03:35:13.433Z,0.00
2019-04-28T03:36:15.788Z,0.00
2019-04-28T03:37:12.577Z,0.00
2019-04-28T03:38:12.661Z,0.00
2019-04-28T03:39:12.610Z,0.00
2019-04-28T03:40:12.539Z,0.00
2019-04-28T03:41:12.547Z,0.00
2019-04-28T03:42:12.592Z,0.00
2019-04-28T03:43:14.340Z,0.00
2019-04-28T03:44:13.227Z,0.00
2019-04-28T03:45:12.509Z,0.00
2019-04-28T03:46:12.483Z,0.00
2019-04-28T03:47:12.469Z,0.00
2019-04-28T03:48:12.506Z,0.00
2019-04-28T03:49:12.480Z,0.00
2019-04-28T03:50:12.520Z,0.00
2019-04-28T03:51:13.428Z,0.00
2019-04-28T03:52:12.423Z,0.00
2019-04-28T03:53:12.404Z,0.00
2019-04-28T03:54:12.513Z,0.00
2019-04-28T03:55:12.381Z,0.00
2019-04-28T03:56:12.566Z,0.00
2019-04-28T03:57:12.351Z,0.00
2019-04-28T03:58:12.361Z,0.00
2019-04-28T03:59:12.368Z,0.00
2019-04-28T04:00:12.387Z,0.00
2019-04-28T04:01:12.332Z,0.00
2019-04-28T04:02:12.428Z,0.00
2019-04-28T04:03:12.284Z,0.00
2019-04-28T04:04:13.823Z,0.00
2019-04-28T04:05:12.288Z,0.00
2019-04-28T04:06:12.313Z,0.00
2019-04-28T04:07:13.222Z,5.62
2019-04-28T04:08:12.379Z,5.62
2019-04-28T04:09:12.221Z,5.62
2019-04-28T04:10:12.385Z,5.62
2019-04-28T04:11:12.271Z,5.62
2019-04-28T04:12:12.207Z,5.62
2019-04-28T04:13:13.194Z,5.62
2019-04-28T04:14:12.173Z,5.62
2019-04-28T04:15:13.263Z,5.62
2019-04-28T04:16:12.161Z,5.62
2019-04-28T04:17:12.143Z,5.62
2019-04-28T04:18:12.137Z,5.62
2019-04-28T04:19:14.212Z,11.25
2019-04-28T04:20:12.128Z,11.25
2019-04-28T04:21:12.174Z,11.25
2019-04-28T04:22:12.128Z,11.25
2019-04-28T04:23:12.053Z,11.25
2019-04-28T04:24:12.051Z,11.25
2019-04-28T04:25:13.135Z,16.88
2019-04-28T04:26:12.082Z,16.88
2019-04-28T04:27:12.071Z,16.88
2019-04-28T04:28:12.040Z,16.88
2019-04-28T04:29:12.040Z,16.88
2019-04-28T04:30:11.997Z,22.50
2019-04-28T04:31:12.109Z,22.50
2019-04-28T04:32:22.938Z,22.50
2019-04-28T04:33:12.985Z,22.50
2019-04-28T04:34:12.007Z,28.12
2019-04-28T04:35:11.939Z,28.12
2019-04-28T04:36:12.153Z,28.12
2019-04-28T04:37:12.644Z,28.12
2019-04-28T04:38:11.960Z,28.12
2019-04-28T04:39:11.919Z,28.12
2019-04-28T04:40:13.420Z,28.12
2019-04-28T04:41:11.926Z,33.75
2019-04-28T04:42:12.034Z,33.75
2019-04-28T04:43:11.883Z,33.75
2019-04-28T04:44:11.861Z,33.75
2019-04-28T04:45:11.858Z,39.38
2019-04-28T04:46:14.268Z,39.38
2019-04-28T04:47:11.871Z,39.38
2019-04-28T04:48:11.916Z,45.00
2019-04-28T04:49:11.817Z,45.00
2019-04-28T04:50:13.248Z,45.00
2019-04-28T04:51:11.784Z,50.62
2019-04-28T04:52:11.912Z,50.62
2019-04-28T04:53:11.783Z,50.62
2019-04-28T04:54:11.758Z,50.62
2019-04-28T04:55:11.854Z,50.62
2019-04-28T04:56:11.731Z,50.62
2019-04-28T04:57:11.814Z,50.62
2019-04-28T04:58:12.233Z,56.25
2019-04-28T04:59:11.801Z,56.25
2019-04-28T05:00:11.771Z,61.88
2019-04-28T05:01:11.661Z,61.88
2019-04-28T05:02:26.644Z,67.50
2019-04-28T05:03:12.739Z,73.12
2019-04-28T05:04:11.645Z,73.12
2019-04-28T05:05:11.882Z,78.75
2019-04-28T05:06:11.727Z,78.75
2019-04-28T05:07:11.620Z,84.38
2019-04-28T05:08:15.549Z,84.38
2019-04-28T05:09:11.576Z,84.38
2019-04-28T05:10:11.661Z,84.38
2019-04-28T05:11:11.584Z,84.38
2019-04-28T05:12:11.564Z,84.38
2019-04-28T05:13:11.577Z,84.38
2019-04-28T05:14:12.162Z,84.38
2019-04-28T05:15:11.528Z,84.38
2019-04-28T05:16:11.596Z,78.75
2019-04-28T05:17:11.508Z,78.75
2019-04-28T05:18:11.513Z,78.75
2019-04-28T05:19:11.525Z,78.75
2019-04-28T05:20:11.552Z,84.38
2019-04-28T05:21:11.468Z,84.38
2019-04-28T05:22:11.567Z,90.00
2019-04-28T05:23:11.764Z,90.00
2019-04-28T05:24:15.934Z,90.00
2019-04-28T05:25:12.414Z,95.62
2019-04-28T05:26:11.492Z,95.62
2019-04-28T05:27:11.408Z,101.25
2019-04-28T05:28:11.539Z,106.88
2019-04-28T05:29:11.375Z,112.50
2019-04-28T05:30:13.960Z,118.12
2019-04-28T05:31:19.955Z,123.75
2019-04-28T05:32:12.348Z,129.38
2019-04-28T05:33:11.453Z,140.62
2019-04-28T05:34:11.675Z,151.88
2019-04-28T05:35:11.432Z,157.50
2019-04-28T05:36:11.779Z,168.75
2019-04-28T05:37:11.293Z,174.38
2019-04-28T05:38:11.337Z,180.00
2019-04-28T05:39:11.342Z,185.62
2019-04-28T05:40:11.367Z,185.62
2019-04-28T05:41:11.261Z,191.25
2019-04-28T05:42:11.533Z,191.25
2019-04-28T05:43:11.387Z,191.25
2019-04-28T05:44:11.261Z,191.25
2019-04-28T05:45:12.330Z,196.88
2019-04-28T05:46:11.214Z,196.88
2019-04-28T05:47:12.235Z,208.12
2019-04-28T05:48:11.387Z,213.75
2019-04-28T05:49:15.292Z,213.75
2019-04-28T05:50:11.160Z,219.38
2019-04-28T05:51:11.340Z,219.38
2019-04-28T05:52:11.954Z,219.38
2019-04-28T05:53:11.242Z,225.00
2019-04-28T05:54:11.149Z,225.00
2019-04-28T05:55:11.153Z,230.62
2019-04-28T05:56:11.103Z,236.25
2019-04-28T05:57:11.163Z,236.25
2019-04-28T05:58:11.096Z,236.25
2019-04-28T05:59:11.126Z,241.88
2019-04-28T06:00:11.062Z,241.88
2019-04-28T06:01:11.123Z,241.88
2019-04-28T06:02:12.276Z,241.88
2019-04-28T06:03:11.102Z,247.50
2019-04-28T06:04:11.303Z,247.50
2019-04-28T06:05:11.044Z,253.12
2019-04-28T06:06:11.116Z,258.75
2019-04-28T06:07:10.988Z,258.75
2019-04-28T06:08:11.034Z,258.75
2019-04-28T06:09:10.982Z,264.38
2019-04-28T06:10:12.534Z,270.00
2019-04-28T06:11:12.049Z,270.00
2019-04-28T06:12:11.146Z,275.62
2019-04-28T06:13:10.928Z,275.62
2019-04-28T06:14:10.978Z,275.62
2019-04-28T06:15:11.950Z,281.25
2019-04-28T06:16:10.998Z,286.88
2019-04-28T06:17:11.011Z,286.88
2019-04-28T06:18:10.893Z,292.50
2019-04-28T06:19:10.862Z,298.12
2019-04-28T06:20:11.794Z,303.75
2019-04-28T06:21:10.925Z,309.38
2019-04-28T06:22:10.812Z,315.00
2019-04-28T06:23:11.054Z,315.00
2019-04-28T06:24:10.806Z,315.00
2019-04-28T06:25:10.892Z,320.62
2019-04-28T06:26:10.791Z,320.62
2019-04-28T06:27:10.795Z,320.62
2019-04-28T06:28:10.754Z,320.62
2019-04-28T06:29:10.849Z,326.25
2019-04-28T06:30:10.988Z,331.88
2019-04-28T06:31:11.802Z,337.50
2019-04-28T06:32:10.759Z,337.50
2019-04-28T06:33:10.798Z,343.12
2019-04-28T06:34:10.697Z,348.75
2019-04-28T06:35:12.815Z,354.38
2019-04-28T06:36:10.667Z,354.38
2019-04-28T06:37:10.726Z,354.38
2019-04-28T06:38:10.666Z,354.38
2019-04-28T06:39:10.737Z,354.38
2019-04-28T06:40:10.656Z,348.75
2019-04-28T06:41:10.751Z,348.75
2019-04-28T06:42:10.604Z,348.75
2019-04-28T06:43:10.774Z,348.75
2019-04-28T06:44:10.604Z,354.38
2019-04-28T06:45:10.837Z,360.00
2019-04-28T06:46:10.580Z,365.62
2019-04-28T06:47:10.697Z,365.62
2019-04-28T06:48:10.562Z,365.62
2019-04-28T06:49:10.700Z,371.25
2019-04-28T06:50:10.620Z,365.62
2019-04-28T06:51:10.729Z,365.62
2019-04-28T06:52:10.534Z,360.00
2019-04-28T06:53:10.620Z,354.38
2019-04-28T06:54:10.479Z,354.38
2019-04-28T06:55:11.712Z,354.38
2019-04-28T06:56:10.514Z,348.75
2019-04-28T06:57:10.642Z,343.12
2019-04-28T06:58:10.663Z,343.12
2019-04-28T06:59:10.469Z,343.12
2019-04-28T07:00:10.567Z,348.75
2019-04-28T07:01:10.433Z,354.38
2019-04-28T07:02:11.384Z,360.00
2019-04-28T07:03:22.465Z,365.62
2019-04-28T07:04:11.386Z,376.88
2019-04-28T07:05:10.592Z,382.50
2019-04-28T07:06:10.536Z,388.12
2019-04-28T07:07:10.503Z,388.12
2019-04-28T07:08:10.411Z,382.50
2019-04-28T07:09:11.467Z,376.88
2019-04-28T07:10:10.328Z,371.25
2019-04-28T07:11:11.631Z,365.62
2019-04-28T07:12:10.431Z,354.38
2019-04-28T07:13:10.389Z,354.38
2019-04-28T07:14:10.488Z,348.75
2019-04-28T07:15:10.313Z,348.75
2019-04-28T07:16:10.562Z,348.75
2019-04-28T07:17:10.299Z,354.38
2019-04-28T07:18:10.483Z,348.75
2019-04-28T07:19:10.267Z,348.75
2019-04-28T07:20:10.411Z,348.75
2019-04-28T07:21:10.239Z,354.38
2019-04-28T07:22:10.402Z,354.38
2019-04-28T07:23:11.430Z,354.38
2019-04-28T07:24:10.256Z,348.75
2019-04-28T07:25:10.421Z,354.38
2019-04-28T07:26:10.337Z,360.00
2019-04-28T07:27:12.397Z,365.62
2019-04-28T07:28:10.169Z,371.25
2019-04-28T07:29:10.190Z,365.62
2019-04-28T07:30:11.079Z,365.62
2019-04-28T07:31:16.929Z,360.00
2019-04-28T07:32:10.214Z,371.25
2019-04-28T07:33:11.185Z,371.25
2019-04-28T07:34:10.180Z,393.75
2019-04-28T07:35:11.351Z,405.00
2019-04-28T07:36:10.095Z,382.50
2019-04-28T07:37:10.161Z,388.12
2019-04-28T07:38:10.220Z,405.00
2019-04-28T07:39:09.994Z,438.75
2019-04-28T07:40:10.231Z,438.75
2019-04-28T07:41:10.029Z,405.00
2019-04-28T07:42:10.005Z,399.38
2019-04-28T07:43:10.141Z,416.25
2019-04-28T07:44:09.953Z,416.25
2019-04-28T07:45:10.167Z,410.62
2019-04-28T07:46:09.963Z,399.38
2019-04-28T07:47:10.111Z,421.88
2019-04-28T07:48:09.995Z,455.62
2019-04-28T07:49:10.095Z,483.75
2019-04-28T07:50:09.880Z,478.12
2019-04-28T07:51:11.095Z,461.25
2019-04-28T07:52:09.891Z,495.00
2019-04-28T07:53:10.015Z,444.38
2019-04-28T07:54:10.767Z,399.38
2019-04-28T07:55:10.004Z,399.38
2019-04-28T07:56:09.828Z,444.38
2019-04-28T07:57:10.028Z,511.88
2019-04-28T07:58:09.790Z,545.62
2019-04-28T07:59:09.973Z,590.62
2019-04-28T08:00:09.866Z,607.50
2019-04-28T08:01:09.767Z,596.25
2019-04-28T08:02:09.975Z,590.62
2019-04-28T08:03:09.782Z,590.62
2019-04-28T08:04:09.898Z,596.25
2019-04-28T08:05:09.735Z,568.12
2019-04-28T08:06:09.891Z,551.25
2019-04-28T08:07:09.894Z,556.88
2019-04-28T08:08:09.801Z,568.12
2019-04-28T08:09:09.923Z,579.38
2019-04-28T08:10:09.668Z,601.88
2019-04-28T08:11:09.792Z,624.38
2019-04-28T08:12:09.645Z,624.38
2019-04-28T08:13:09.778Z,613.12
2019-04-28T08:14:09.629Z,624.38
2019-04-28T08:15:09.804Z,618.75
2019-04-28T08:16:09.625Z,585.00
2019-04-28T08:17:09.752Z,511.88
2019-04-28T08:18:09.579Z,450.00
2019-04-28T08:19:09.787Z,410.62
2019-04-28T08:20:09.725Z,371.25
2019-04-28T08:21:09.552Z,331.88
2019-04-28T08:22:09.704Z,286.88
2019-04-28T08:23:09.525Z,247.50
2019-04-28T08:24:09.687Z,213.75
2019-04-28T08:25:09.539Z,196.88
2019-04-28T08:26:09.540Z,191.25
2019-04-28T08:27:09.500Z,213.75
2019-04-28T08:28:09.633Z,253.12
2019-04-28T08:29:09.472Z,292.50
2019-04-28T08:30:09.711Z,309.38
2019-04-28T08:31:09.443Z,315.00
2019-04-28T08:32:09.461Z,315.00
2019-04-28T08:33:09.603Z,315.00
2019-04-28T08:34:09.429Z,309.38
2019-04-28T08:35:09.574Z,309.38
2019-04-28T08:36:09.388Z,320.62
2019-04-28T08:37:09.585Z,326.25
2019-04-28T08:38:09.418Z,326.25
2019-04-28T08:39:09.495Z,320.62
2019-04-28T08:40:09.376Z,309.38
2019-04-28T08:41:10.375Z,303.75
2019-04-28T08:42:09.318Z,315.00
2019-04-28T08:43:10.457Z,326.25
2019-04-28T08:44:09.354Z,360.00
2019-04-28T08:45:09.431Z,427.50
2019-04-28T08:46:09.280Z,540.00
2019-04-28T08:47:10.458Z,596.25
2019-04-28T08:48:09.266Z,562.50
2019-04-28T08:49:09.402Z,483.75
2019-04-28T08:50:09.245Z,455.62
2019-04-28T08:51:09.378Z,455.62
2019-04-28T08:52:09.222Z,478.12
2019-04-28T08:53:09.375Z,534.38
2019-04-28T08:54:09.259Z,568.12
2019-04-28T08:55:11.333Z,590.62
2019-04-28T08:56:09.708Z,573.75
2019-04-28T08:57:09.309Z,551.25
2019-04-28T08:58:09.151Z,545.62
2019-04-28T08:59:09.281Z,596.25
2019-04-28T09:00:09.132Z,675.00
2019-04-28T09:01:10.254Z,731.25
2019-04-28T09:02:09.106Z,765.00
2019-04-28T09:03:10.258Z,770.62
2019-04-28T09:04:15.629Z,770.62
2019-04-28T09:05:10.443Z,770.62
2019-04-28T09:06:10.059Z,765.00
2019-04-28T09:07:09.177Z,759.38
2019-04-28T09:08:09.053Z,748.12
2019-04-28T09:09:09.233Z,720.00
2019-04-28T09:10:09.015Z,703.12
2019-04-28T09:11:09.186Z,708.75
2019-04-28T09:12:08.990Z,708.75
2019-04-28T09:13:09.092Z,708.75
2019-04-28T09:14:09.171Z,708.75
2019-04-28T09:15:09.157Z,714.38
2019-04-28T09:16:09.132Z,731.25
2019-04-28T09:17:08.948Z,725.62
2019-04-28T09:19:19.152Z,725.62
2019-04-28T09:20:17.900Z,731.25
2019-04-28T09:21:18.064Z,742.50
2019-04-28T09:22:17.889Z,776.25
2019-04-28T09:23:19.032Z,810.00
2019-04-28T09:24:17.891Z,815.62
2019-04-28T09:25:19.014Z,815.62
2019-04-28T09:26:19.020Z,826.88
2019-04-28T09:27:17.820Z,826.88
2019-04-28T09:28:24.756Z,826.88
2019-04-28T09:29:17.938Z,832.50
2019-04-28T09:30:18.944Z,849.38
2019-04-28T09:31:18.822Z,855.00
2019-04-28T09:32:17.769Z,843.75
2019-04-28T09:33:17.749Z,838.12
2019-04-28T09:34:27.780Z,832.50
2019-04-28T09:35:18.764Z,826.88
2019-04-28T09:36:17.873Z,832.50
2019-04-28T09:37:17.728Z,832.50
2019-04-28T09:38:17.728Z,821.25
2019-04-28T09:39:17.732Z,810.00
2019-04-28T09:40:18.814Z,798.75
2019-04-28T09:41:17.716Z,793.12
2019-04-28T09:42:19.869Z,781.88
2019-04-28T09:43:17.670Z,781.88
2019-04-28T09:44:18.076Z,787.50
2019-04-28T09:45:17.653Z,787.50
2019-04-28T09:46:17.744Z,793.12
2019-04-28T09:47:17.697Z,798.75
2019-04-28T09:48:17.738Z,815.62
2019-04-28T09:49:17.597Z,826.88
2019-04-28T09:50:17.642Z,832.50
2019-04-28T09:51:17.576Z,821.25
2019-04-28T09:52:17.684Z,826.88
2019-04-28T09:53:17.541Z,815.62
2019-04-28T09:54:17.715Z,787.50
2019-04-28T09:55:17.597Z,765.00
2019-04-28T09:56:17.504Z,781.88
2019-04-28T09:57:17.521Z,748.12
2019-04-28T09:58:17.614Z,720.00
2019-04-28T09:59:17.490Z,697.50
2019-04-28T10:00:18.719Z,669.38
2019-04-28T10:01:17.487Z,641.25
2019-04-28T10:02:17.511Z,624.38
2019-04-28T10:03:17.455Z,601.88
2019-04-28T10:04:17.537Z,573.75
2019-04-28T10:05:17.463Z,568.12
2019-04-28T10:06:17.626Z,568.12
2019-04-28T10:07:17.415Z,585.00
2019-04-28T10:08:17.397Z,618.75
2019-04-28T10:09:17.374Z,641.25
2019-04-28T10:10:17.538Z,652.50
2019-04-28T10:11:29.692Z,658.12
2019-04-28T10:12:26.924Z,663.75
2019-04-28T10:13:18.346Z,669.38
2019-04-28T10:14:17.590Z,663.75
2019-04-28T10:15:18.397Z,641.25
2019-04-28T10:16:17.435Z,607.50
2019-04-28T10:17:17.309Z,590.62
2019-04-28T10:18:17.434Z,562.50
2019-04-28T10:19:17.279Z,551.25
2019-04-28T10:20:17.422Z,551.25
2019-04-28T10:21:17.253Z,556.88
2019-04-28T10:22:18.384Z,551.25
2019-04-28T10:23:17.255Z,540.00
2019-04-28T10:24:18.401Z,517.50
2019-04-28T10:25:17.256Z,495.00
2019-04-28T10:26:18.333Z,466.88
2019-04-28T10:27:17.211Z,405.00
2019-04-28T10:28:18.315Z,326.25
2019-04-28T10:29:17.182Z,241.88
2019-04-28T10:30:17.441Z,174.38
2019-04-28T10:31:17.146Z,135.00
2019-04-28T10:32:17.364Z,129.38
2019-04-28T10:33:17.136Z,135.00
2019-04-28T10:34:17.227Z,151.88
2019-04-28T10:35:17.158Z,168.75
2019-04-28T10:36:18.323Z,180.00
2019-04-28T10:37:17.114Z,196.88
2019-04-28T10:38:17.261Z,213.75
2019-04-28T10:39:17.169Z,225.00
2019-04-28T10:40:17.075Z,230.62
2019-04-28T10:41:18.091Z,236.25
2019-04-28T10:42:17.041Z,253.12
2019-04-28T10:43:17.240Z,264.38
2019-04-28T10:44:17.018Z,270.00
2019-04-28T10:45:17.020Z,270.00
2019-04-28T10:46:17.019Z,270.00
2019-04-28T10:47:19.168Z,264.38
2019-04-28T10:48:16.985Z,258.75
2019-04-28T10:49:18.174Z,264.38
2019-04-28T10:50:16.966Z,275.62
2019-04-28T10:51:16.986Z,286.88
2019-04-28T10:52:16.935Z,315.00
2019-04-28T10:53:17.068Z,360.00
2019-04-28T10:54:16.930Z,427.50
2019-04-28T10:55:17.074Z,517.50
2019-04-28T10:56:16.931Z,641.25
2019-04-28T10:57:18.003Z,843.75
2019-04-28T10:58:16.888Z,1192.50
2019-04-28T10:59:23.541Z,1406.25
2019-04-28T11:00:16.867Z,1608.75
2019-04-28T11:01:16.973Z,2002.50
2019-04-28T11:02:16.825Z,2283.75
2019-04-28T11:03:18.963Z,2407.50
2019-04-28T11:04:18.987Z,2441.25
2019-04-28T11:05:16.816Z,2463.75
2019-04-28T11:06:17.018Z,2334.38
2019-04-28T11:07:16.774Z,2683.12
2019-04-28T11:08:16.834Z,3358.12
2019-04-28T11:09:29.809Z,3178.12
2019-04-28T11:10:17.737Z,3009.38
2019-04-28T11:11:16.950Z,2936.25
2019-04-28T11:12:16.718Z,2840.62
2019-04-28T11:13:17.808Z,2058.75
2019-04-28T11:14:16.698Z,1805.62
2019-04-28T11:15:18.842Z,1805.62
2019-04-28T11:16:16.678Z,1721.25
2019-04-28T11:17:16.859Z,1530.00
2019-04-28T11:18:16.675Z,1642.50
2019-04-28T11:19:17.741Z,1726.88
2019-04-28T11:20:16.641Z,1698.75
2019-04-28T11:21:16.744Z,1833.75
2019-04-28T11:22:16.697Z,1794.38
2019-04-28T11:23:16.605Z,1816.88
2019-04-28T11:24:16.590Z,1963.12
2019-04-28T11:25:16.760Z,1940.62
2019-04-28T11:26:16.629Z,1906.88
2019-04-28T11:27:16.735Z,1710.00
2019-04-28T11:28:16.554Z,1546.88
2019-04-28T11:29:16.541Z,1563.75
2019-04-28T11:30:16.561Z,1569.38
2019-04-28T11:31:16.710Z,1575.00
2019-04-28T11:32:16.544Z,1580.62
2019-04-28T11:33:16.603Z,1597.50
2019-04-28T11:34:16.490Z,1546.88
2019-04-28T11:35:21.755Z,1417.50
2019-04-28T11:36:17.453Z,1378.12
2019-04-28T11:37:16.615Z,1378.12
2019-04-28T11:38:16.446Z,1344.38
2019-04-28T11:39:16.569Z,1333.12
2019-04-28T11:40:16.435Z,1445.62
2019-04-28T11:41:16.442Z,1513.12
2019-04-28T11:42:16.552Z,1462.50
2019-04-28T11:43:16.397Z,1513.12
2019-04-28T11:44:18.537Z,1552.50
2019-04-28T11:45:16.359Z,1524.38
2019-04-28T11:46:16.478Z,1535.62
2019-04-28T11:47:16.541Z,1546.88
2019-04-28T11:48:16.505Z,1620.00
2019-04-28T11:49:16.343Z,1603.12
2019-04-28T11:50:16.467Z,1530.00
2019-04-28T11:51:16.316Z,1603.12
2019-04-28T11:52:16.421Z,1665.00
2019-04-28T11:53:17.562Z,1732.50
2019-04-28T11:54:16.281Z,1687.50
2019-04-28T11:55:16.398Z,1726.88
2019-04-28T11:56:16.495Z,1755.00
2019-04-28T11:57:16.355Z,1833.75
2019-04-28T11:58:16.230Z,1861.88
2019-04-28T11:59:16.242Z,1861.88
2019-04-28T12:00:16.347Z,1878.75
2019-04-28T12:01:16.214Z,1963.12
2019-04-28T12:02:16.288Z,1558.12
2019-04-28T12:03:16.920Z,2188.12
2019-04-28T12:04:16.328Z,2250.00
2019-04-28T12:05:16.268Z,1226.25
2019-04-28T12:06:16.160Z,708.75
2019-04-28T12:07:16.223Z,579.38
2019-04-28T12:08:16.152Z,528.75
2019-04-28T12:09:17.287Z,2317.50
2019-04-28T12:10:16.126Z,1951.88
2019-04-28T12:11:16.088Z,1884.38
2019-04-28T12:12:16.078Z,1749.38
2019-04-28T12:13:17.301Z,1490.62
2019-04-28T12:14:16.082Z,1743.75
2019-04-28T12:15:16.199Z,2154.38
2019-04-28T12:16:16.059Z,2171.25
2019-04-28T12:17:16.152Z,1918.12
2019-04-28T12:18:16.148Z,573.75
2019-04-28T12:19:16.018Z,495.00
2019-04-28T12:20:16.122Z,450.00
2019-04-28T12:21:15.994Z,405.00
2019-04-28T12:22:17.137Z,382.50
2019-04-28T12:23:17.098Z,371.25
2019-04-28T12:24:15.951Z,348.75
2019-04-28T12:25:16.045Z,331.88
2019-04-28T12:26:15.931Z,326.25
2019-04-28T12:27:16.047Z,326.25
2019-04-28T12:28:15.967Z,315.00
2019-04-28T12:29:15.928Z,303.75
2019-04-28T12:30:15.960Z,281.25
2019-04-28T12:31:15.892Z,264.38
2019-04-28T12:32:16.003Z,253.12
2019-04-28T12:33:15.926Z,270.00
2019-04-28T12:34:16.955Z,315.00
2019-04-28T12:35:18.372Z,388.12
2019-04-28T12:36:15.900Z,466.88
2019-04-28T12:37:15.824Z,534.38
2019-04-28T12:38:15.987Z,579.38
2019-04-28T12:39:15.800Z,624.38
2019-04-28T12:40:15.986Z,652.50
2019-04-28T12:41:15.773Z,680.62
2019-04-28T12:42:15.852Z,691.88
2019-04-28T12:43:15.780Z,686.25
2019-04-28T12:44:16.894Z,669.38
2019-04-28T12:45:15.747Z,641.25